createdAt,value
2023-05-14T00:01:15.136Z,5.85
2023-05-14T00:03:41.730Z,5.40
2023-05-14T00:06:09.442Z,6.18
2023-05-14T00:08:35.972Z,5.60
2023-05-14T00:11:02.611Z,5.60
2023-05-14T00:13:29.201Z,5.70
2023-05-14T00:15:55.713Z,6.15
2023-05-14T00:18:22.080Z,5.97
2023-05-14T00:20:48.705Z,5.82
2023-05-14T00:23:15.068Z,6.45
2023-05-14T00:25:41.496Z,6.05
2023-05-14T00:28:07.842Z,6.30
2023-05-14T00:30:34.883Z,5.78
2023-05-14T00:33:01.436Z,5.68
2023-05-14T00:35:28.042Z,6.75
2023-05-14T00:37:55.028Z,6.57
2023-05-14T00:40:25.794Z,5.60
2023-05-14T00:42:52.598Z,5.90
2023-05-14T00:45:19.153Z,5.90
2023-05-14T00:47:45.808Z,5.93
2023-05-14T00:50:13.106Z,6.68
2023-05-14T00:52:40.860Z,5.65
2023-05-14T00:55:08.601Z,5.80
2023-05-14T00:57:36.349Z,6.18
2023-05-14T01:00:03.705Z,6.10
2023-05-14T01:02:30.196Z,5.72
2023-05-14T01:04:57.285Z,6.75
2023-05-14T01:08:01.972Z,5.55
2023-05-14T01:10:33.887Z,6.97
2023-05-14T01:13:09.249Z,6.05
2023-05-14T01:15:37.693Z,6.28
2023-05-14T01:18:09.430Z,5.55
2023-05-14T01:20:36.550Z,5.40
2023-05-14T01:23:03.659Z,5.93
2023-05-14T01:25:31.297Z,6.20
2023-05-14T01:28:11.302Z,6.35
2023-05-14T01:30:43.379Z,5.43
2023-05-14T01:33:14.493Z,5.57
2023-05-14T01:38:10.942Z,6.07
2023-05-14T01:40:38.395Z,5.38
2023-05-14T01:43:05.631Z,5.45
2023-05-14T01:45:35.407Z,5.63
2023-05-14T01:48:01.981Z,6.32
2023-05-14T01:50:28.382Z,6.45
2023-05-14T01:52:56.417Z,6.50
2023-05-14T01:55:24.449Z,5.97
2023-05-14T01:57:51.835Z,6.63
2023-05-14T02:00:18.957Z,5.72
2023-05-14T02:02:45.442Z,6.05
2023-05-14T02:05:13.061Z,5.32
2023-05-14T02:07:39.997Z,6.13
2023-05-14T02:10:07.271Z,5.95
2023-05-14T02:12:33.947Z,5.55
2023-05-14T02:15:00.410Z,7.15
2023-05-14T02:17:26.926Z,5.72
2023-05-14T02:19:53.378Z,5.38
2023-05-14T02:22:19.733Z,6.38
2023-05-14T02:24:46.124Z,5.63
2023-05-14T02:27:13.370Z,6.07
2023-05-14T02:29:39.909Z,5.68
2023-05-14T02:32:06.673Z,6.03
2023-05-14T02:34:34.386Z,6.15
2023-05-14T02:37:01.074Z,6.93
2023-05-14T02:39:27.535Z,6.10
2023-05-14T02:41:53.956Z,5.82
2023-05-14T02:44:20.376Z,6.38
2023-05-14T02:46:48.387Z,5.93
2023-05-14T02:49:14.794Z,6.57
2023-05-14T02:51:41.216Z,5.57
2023-05-14T02:54:07.701Z,6.10
2023-05-14T02:56:34.124Z,5.63
2023-05-14T02:59:00.737Z,5.70
2023-05-14T03:01:27.859Z,6.88
2023-05-14T03:03:54.458Z,6.60
2023-05-14T03:06:20.901Z,11.35
2023-05-14T03:08:47.352Z,6.50
2023-05-14T03:11:13.792Z,5.15
2023-05-14T03:13:40.324Z,5.78
2023-05-14T03:16:07.077Z,6.32
2023-05-14T03:18:34.729Z,6.30
2023-05-14T03:21:01.364Z,6.93
2023-05-14T03:23:27.928Z,6.47
2023-05-14T03:25:54.334Z,6.90
2023-05-14T03:28:20.816Z,6.43
2023-05-14T03:30:47.296Z,6.72
2023-05-14T03:33:13.934Z,6.90
2023-05-14T03:35:40.318Z,8.40
2023-05-14T03:38:07.431Z,6.70
2023-05-14T03:40:33.928Z,6.63
2023-05-14T03:43:00.357Z,6.50
2023-05-14T03:45:28.578Z,7.20
2023-05-14T03:47:55.051Z,6.65
2023-05-14T03:50:21.851Z,6.55
2023-05-14T03:52:48.369Z,6.85
2023-05-14T03:55:14.847Z,6.90
2023-05-14T03:57:41.435Z,6.75
2023-05-14T04:00:08.622Z,6.55
2023-05-14T04:02:35.100Z,8.10
2023-05-14T04:05:01.580Z,7.40
2023-05-14T04:07:28.114Z,7.97
2023-05-14T04:09:54.462Z,7.25
2023-05-14T04:12:20.879Z,6.90
2023-05-14T04:14:47.320Z,6.63
2023-05-14T04:17:13.785Z,6.63
2023-05-14T04:19:40.448Z,6.50
2023-05-14T04:22:06.889Z,7.25
2023-05-14T04:24:33.310Z,6.55
2023-05-14T04:26:59.848Z,7.22
2023-05-14T04:29:26.386Z,6.43
2023-05-14T04:31:53.687Z,7.22
2023-05-14T04:34:20.272Z,7.40
2023-05-14T04:36:46.880Z,6.95
2023-05-14T04:39:13.396Z,6.05
2023-05-14T04:41:39.853Z,7.93
2023-05-14T04:44:07.050Z,6.88
2023-05-14T04:46:33.471Z,6.40
2023-05-14T04:48:59.924Z,6.78
2023-05-14T04:51:26.382Z,6.95
2023-05-14T04:53:52.748Z,7.32
2023-05-14T04:56:19.173Z,7.07
2023-05-14T04:58:45.685Z,7.30
2023-05-14T05:01:12.230Z,6.03
2023-05-14T05:03:38.708Z,6.75
2023-05-14T05:06:05.426Z,6.60
2023-05-14T05:08:31.853Z,7.50
2023-05-14T05:10:58.238Z,7.22
2023-05-14T05:13:24.739Z,7.38
2023-05-14T05:15:51.234Z,6.75
2023-05-14T05:18:17.786Z,6.30
2023-05-14T05:20:44.160Z,6.60
2023-05-14T05:23:10.967Z,6.53
2023-05-14T05:25:37.376Z,5.88
2023-05-14T05:28:03.836Z,6.78
2023-05-14T05:30:30.305Z,6.28
2023-05-14T05:32:57.429Z,5.82
2023-05-14T05:35:23.869Z,6.22
2023-05-14T05:37:50.277Z,5.60
2023-05-14T05:40:16.914Z,6.45
2023-05-14T05:42:43.600Z,6.80
2023-05-14T05:45:10.643Z,5.75
2023-05-14T05:47:37.118Z,5.35
2023-05-14T05:50:03.870Z,5.80
2023-05-14T05:52:30.407Z,5.57
2023-05-14T05:54:56.807Z,5.95
2023-05-14T05:57:25.660Z,5.28
2023-05-14T05:59:53.361Z,5.20
2023-05-14T06:02:20.315Z,5.55
2023-05-14T06:04:46.794Z,4.60
2023-05-14T06:07:13.223Z,5.68
2023-05-14T06:09:39.604Z,5.68
2023-05-14T06:12:06.611Z,5.28
2023-05-14T06:14:33.029Z,4.80
2023-05-14T06:16:59.551Z,4.47
2023-05-14T06:19:26.169Z,5.03
2023-05-14T06:21:52.864Z,4.97
2023-05-14T06:24:20.285Z,4.90
2023-05-14T06:26:46.717Z,5.20
2023-05-14T06:29:13.086Z,4.20
2023-05-14T06:31:39.590Z,4.82
2023-05-14T06:34:06.096Z,5.38
2023-05-14T06:36:32.518Z,4.72
2023-05-14T06:38:59.003Z,4.43
2023-05-14T06:41:26.046Z,4.97
2023-05-14T06:43:52.482Z,4.32
2023-05-14T06:46:18.875Z,4.00
2023-05-14T06:48:45.791Z,3.83
2023-05-14T06:51:13.315Z,4.30
2023-05-14T06:53:40.882Z,4.15
2023-05-14T06:56:07.804Z,3.85
2023-05-14T06:58:34.501Z,3.78
2023-05-14T07:01:01.236Z,4.53
2023-05-14T07:03:29.171Z,4.20
2023-05-14T07:05:55.731Z,3.65
2023-05-14T07:08:22.261Z,4.00
2023-05-14T07:10:48.621Z,3.97
2023-05-14T07:13:15.000Z,3.38
2023-05-14T07:15:41.450Z,2.67
2023-05-14T07:18:07.898Z,3.35
2023-05-14T07:20:34.493Z,3.35
2023-05-14T07:23:00.975Z,3.67
2023-05-14T07:25:27.462Z,3.60
2023-05-14T07:27:53.904Z,3.10
2023-05-14T07:30:20.778Z,3.60
2023-05-14T07:32:47.236Z,4.75
2023-05-14T07:35:13.990Z,3.85
2023-05-14T07:37:40.576Z,3.75
2023-05-14T07:40:07.534Z,4.20
2023-05-14T07:42:36.918Z,4.88
2023-05-14T07:45:04.570Z,3.70
2023-05-14T07:47:31.114Z,2.90
2023-05-14T07:49:57.809Z,2.40
2023-05-14T07:52:25.515Z,2.97
2023-05-14T07:54:52.193Z,2.72
2023-05-14T07:57:19.810Z,3.63
2023-05-14T07:59:47.744Z,2.40
2023-05-14T08:02:15.871Z,2.63
2023-05-14T08:04:42.547Z,2.90
2023-05-14T08:07:09.308Z,2.20
2023-05-14T08:09:35.969Z,2.63
2023-05-14T08:12:02.808Z,2.70
2023-05-14T08:14:29.289Z,2.65
2023-05-14T08:16:55.756Z,2.55
2023-05-14T08:19:23.143Z,2.00
2023-05-14T08:21:49.582Z,1.90
2023-05-14T08:24:16.235Z,1.48
2023-05-14T08:26:42.931Z,2.22
2023-05-14T08:29:10.822Z,1.80
2023-05-14T08:31:38.092Z,1.90
2023-05-14T08:34:04.644Z,1.83
2023-05-14T08:36:31.521Z,1.60
2023-05-14T08:38:58.254Z,1.65
2023-05-14T08:41:25.396Z,1.73
2023-05-14T08:44:09.240Z,1.75
2023-05-14T08:46:38.229Z,1.65
2023-05-14T08:49:23.285Z,2.03
2023-05-14T08:51:49.948Z,1.52
2023-05-14T08:54:17.738Z,1.88
2023-05-14T08:56:46.369Z,1.63
2023-05-14T08:59:13.456Z,1.63
2023-05-14T09:01:47.833Z,1.70
2023-05-14T09:04:19.385Z,1.80
2023-05-14T09:06:48.706Z,1.55
2023-05-14T09:09:15.432Z,1.95
2023-05-14T09:11:42.758Z,1.92
2023-05-14T09:14:09.921Z,1.73
2023-05-14T09:16:37.120Z,1.90
2023-05-14T09:19:04.791Z,2.03
2023-05-14T09:21:33.449Z,1.98
2023-05-14T09:24:00.277Z,1.80
2023-05-14T09:26:27.634Z,1.95
2023-05-14T09:29:03.655Z,2.15
2023-05-14T09:31:31.867Z,1.77
2023-05-14T09:33:59.204Z,1.63
2023-05-14T09:36:29.006Z,1.60
2023-05-14T09:38:58.593Z,1.50
2023-05-14T09:41:25.090Z,1.88
2023-05-14T09:43:51.740Z,1.73
2023-05-14T09:46:18.465Z,1.90
2023-05-14T09:48:46.130Z,1.35
2023-05-14T09:51:13.716Z,1.77
2023-05-14T09:53:41.258Z,1.55
2023-05-14T09:56:07.657Z,1.63
2023-05-14T09:58:34.068Z,1.40
2023-05-14T10:01:01.841Z,2.08
2023-05-14T10:03:30.751Z,1.75
2023-05-14T10:06:01.740Z,1.85
2023-05-14T10:08:35.276Z,2.28
2023-05-14T10:11:05.289Z,2.50
2023-05-14T10:13:37.311Z,2.20
2023-05-14T10:16:16.352Z,1.85
2023-05-14T10:18:51.793Z,1.70
2023-05-14T10:21:21.725Z,1.88
2023-05-14T10:23:50.312Z,2.17
2023-05-14T10:26:17.053Z,2.00
2023-05-14T10:28:44.003Z,1.80
2023-05-14T10:31:10.569Z,2.60
2023-05-14T10:33:47.232Z,2.67
2023-05-14T10:36:13.813Z,2.28
2023-05-14T10:38:40.193Z,2.67
2023-05-14T10:41:21.538Z,2.22
2023-05-14T10:43:48.166Z,2.63
2023-05-14T10:46:14.837Z,2.40
2023-05-14T10:48:43.173Z,2.17
2023-05-14T10:51:10.889Z,2.42
2023-05-14T10:53:38.377Z,2.25
2023-05-14T10:56:09.616Z,1.88
2023-05-14T10:58:38.055Z,2.10
2023-05-14T11:01:06.646Z,1.90
2023-05-14T11:03:40.133Z,2.30
2023-05-14T11:06:07.481Z,2.10
2023-05-14T11:08:34.135Z,2.50
2023-05-14T11:11:00.712Z,2.22
2023-05-14T11:13:27.299Z,1.98
2023-05-14T11:15:53.901Z,2.05
2023-05-14T11:18:31.005Z,2.53
2023-05-14T11:21:01.168Z,2.13
2023-05-14T11:23:27.994Z,1.92
2023-05-14T11:25:55.770Z,1.70
2023-05-14T11:28:23.323Z,2.30
2023-05-14T11:30:51.278Z,2.10
2023-05-14T11:33:18.574Z,2.28
2023-05-14T11:35:46.535Z,2.00
2023-05-14T11:38:20.394Z,1.80
2023-05-14T11:40:54.399Z,1.52
2023-05-14T11:43:23.635Z,1.92
2023-05-14T11:45:54.230Z,1.70
2023-05-14T11:48:21.785Z,2.20
2023-05-14T11:50:49.660Z,2.20
2023-05-14T11:53:20.759Z,2.00
2023-05-14T11:55:47.493Z,1.70
2023-05-14T11:58:14.189Z,1.90
2023-05-14T12:00:40.741Z,1.85
2023-05-14T12:03:10.090Z,1.90
2023-05-14T12:05:39.181Z,2.20
2023-05-14T12:08:22.252Z,1.88
2023-05-14T12:10:48.859Z,2.30
2023-05-14T12:13:17.277Z,2.10
2023-05-14T12:15:48.639Z,2.47
2023-05-14T12:18:23.858Z,1.48
2023-05-14T12:20:52.112Z,1.88
2023-05-14T12:23:31.619Z,1.70
2023-05-14T12:26:09.165Z,1.73
2023-05-14T12:28:39.305Z,2.13
2023-05-14T12:31:06.405Z,1.92
2023-05-14T12:33:32.939Z,2.25
2023-05-14T12:36:19.859Z,1.85
2023-05-14T12:38:47.552Z,2.05
2023-05-14T12:41:14.082Z,2.00
2023-05-14T12:43:43.692Z,1.73
2023-05-14T12:46:10.652Z,1.67
2023-05-14T12:48:37.024Z,2.35
2023-05-14T12:51:03.802Z,2.10
2023-05-14T12:53:30.255Z,2.13
2023-05-14T12:55:56.651Z,2.08
2023-05-14T12:58:23.079Z,2.50
2023-05-14T13:00:49.628Z,2.10
2023-05-14T13:03:16.345Z,2.15
2023-05-14T13:05:42.742Z,2.40
2023-05-14T13:08:09.949Z,2.13
2023-05-14T13:10:36.341Z,2.70
2023-05-14T13:13:02.811Z,2.10
2023-05-14T13:15:31.473Z,3.03
2023-05-14T13:17:58.138Z,2.47
2023-05-14T13:20:27.205Z,3.03
2023-05-14T13:22:53.703Z,3.20
2023-05-14T13:25:20.162Z,2.85
2023-05-14T13:27:46.564Z,2.80
2023-05-14T13:30:13.254Z,3.10
2023-05-14T13:32:42.104Z,2.85
2023-05-14T13:35:09.225Z,3.10
2023-05-14T13:37:36.068Z,3.22
2023-05-14T13:40:04.347Z,2.95
2023-05-14T13:42:31.004Z,3.00
2023-05-14T13:44:59.171Z,3.70
2023-05-14T13:47:26.465Z,3.70
2023-05-14T13:49:53.460Z,3.80
2023-05-14T13:52:19.928Z,3.35
2023-05-14T13:54:46.465Z,3.25
2023-05-14T13:57:12.911Z,5.30
2023-05-14T13:59:39.440Z,4.32
2023-05-14T14:02:06.340Z,4.20
2023-05-14T14:04:32.900Z,5.03
2023-05-14T14:06:59.411Z,4.90
2023-05-14T14:09:26.171Z,5.13
2023-05-14T14:11:52.839Z,4.65
2023-05-14T14:14:19.409Z,5.25
2023-05-14T14:16:45.944Z,4.45
2023-05-14T14:19:12.302Z,3.58
2023-05-14T14:21:42.617Z,3.30
2023-05-14T14:24:09.071Z,2.10
2023-05-14T14:26:35.589Z,1.77
2023-05-14T14:29:01.991Z,1.73
2023-05-14T14:31:29.102Z,1.63
2023-05-14T14:33:55.496Z,1.33
2023-05-14T14:36:22.053Z,1.20
2023-05-14T14:38:48.536Z,1.25
2023-05-14T14:41:14.947Z,1.48
2023-05-14T14:43:42.075Z,1.30
2023-05-14T14:46:09.209Z,1.23
2023-05-14T14:48:39.011Z,1.67
2023-05-14T14:51:06.911Z,1.27
2023-05-14T14:53:34.408Z,1.75
2023-05-14T14:56:02.003Z,4.68
2023-05-14T14:58:28.619Z,4.40
2023-05-14T15:00:56.747Z,1.50
2023-05-14T15:03:24.727Z,1.40
2023-05-14T15:05:53.274Z,1.30
2023-05-14T15:08:20.848Z,1.52
2023-05-14T15:10:47.382Z,1.30
2023-05-14T15:13:13.914Z,2.00
2023-05-14T15:15:40.560Z,2.30
2023-05-14T15:18:07.052Z,2.05
2023-05-14T15:20:33.664Z,1.75
2023-05-14T15:23:00.275Z,1.75
2023-05-14T15:25:27.311Z,1.83
2023-05-14T15:27:53.895Z,2.05
2023-05-14T15:30:20.608Z,2.58
2023-05-14T15:32:47.108Z,2.05
2023-05-14T15:35:13.960Z,2.00
2023-05-14T15:37:42.609Z,1.80
2023-05-14T15:40:10.336Z,2.35
2023-05-14T15:42:44.462Z,1.70
2023-05-14T15:45:12.678Z,1.95
2023-05-14T15:47:39.850Z,2.47
2023-05-14T15:50:07.136Z,1.65
2023-05-14T15:52:33.951Z,2.17
2023-05-14T15:55:00.583Z,2.67
2023-05-14T15:57:27.516Z,1.70
2023-05-14T15:59:54.081Z,1.98
2023-05-14T16:02:20.565Z,1.52
2023-05-14T16:04:48.693Z,2.10
2023-05-14T16:07:15.736Z,3.25
2023-05-14T16:09:42.362Z,1.80
2023-05-14T16:12:09.283Z,1.80
2023-05-14T16:14:36.281Z,1.80
2023-05-14T16:17:02.721Z,1.92
2023-05-14T16:19:29.057Z,1.52
2023-05-14T16:21:55.609Z,1.90
2023-05-14T16:24:22.040Z,1.60
2023-05-14T16:26:48.589Z,1.80
2023-05-14T16:29:15.174Z,1.58
2023-05-14T16:31:41.659Z,1.80
2023-05-14T16:34:08.094Z,1.25
2023-05-14T16:36:34.553Z,1.30
2023-05-14T16:41:30.740Z,1.40
2023-05-14T16:43:57.228Z,1.85
2023-05-14T16:46:23.768Z,1.42
2023-05-14T16:48:50.615Z,1.30
2023-05-14T16:51:17.064Z,1.88
2023-05-14T16:53:43.506Z,2.10
2023-05-14T16:56:11.032Z,1.80
2023-05-14T16:58:38.416Z,1.77
2023-05-14T17:01:06.345Z,1.70
2023-05-14T17:03:33.864Z,1.65
2023-05-14T17:06:00.543Z,2.50
2023-05-14T17:08:32.249Z,2.20
2023-05-14T17:10:59.021Z,2.40
2023-05-14T17:13:25.560Z,2.33
2023-05-14T17:15:52.050Z,2.13
2023-05-14T17:18:18.520Z,1.83
2023-05-14T17:20:44.872Z,2.67
2023-05-14T17:23:11.232Z,2.25
2023-05-14T17:25:37.572Z,2.40
2023-05-14T17:28:04.215Z,6.63
2023-05-14T17:30:30.650Z,8.18
2023-05-14T17:32:57.069Z,3.83
2023-05-14T17:35:23.675Z,3.83
2023-05-14T17:37:50.312Z,3.28
2023-05-14T17:40:16.887Z,1.95
2023-05-14T17:42:45.412Z,2.03
2023-05-14T17:45:13.175Z,2.20
2023-05-14T17:47:39.783Z,2.03
2023-05-14T17:50:07.128Z,2.28
2023-05-14T17:52:33.924Z,2.05
2023-05-14T17:55:00.359Z,1.63
2023-05-14T17:57:26.998Z,1.77
2023-05-14T17:59:53.444Z,2.25
2023-05-14T18:02:19.890Z,2.15
2023-05-14T18:04:46.636Z,2.22
2023-05-14T18:07:13.255Z,2.75
2023-05-14T18:09:39.630Z,2.75
2023-05-14T18:12:06.651Z,2.63
2023-05-14T18:14:33.533Z,1.95
2023-05-14T18:17:00.080Z,2.05
2023-05-14T18:19:26.572Z,1.80
2023-05-14T18:21:55.337Z,2.40
2023-05-14T18:24:22.258Z,2.20
2023-05-14T18:26:48.730Z,1.88
2023-05-14T18:29:15.265Z,1.70
2023-05-14T18:31:41.666Z,2.47
2023-05-14T18:34:08.258Z,3.95
2023-05-14T18:36:34.923Z,2.42
2023-05-14T18:39:01.394Z,2.33
2023-05-14T18:41:27.772Z,2.58
2023-05-14T18:43:54.213Z,2.63
2023-05-14T18:46:20.928Z,2.78
2023-05-14T18:48:47.388Z,2.40
2023-05-14T18:51:13.892Z,2.53
2023-05-14T18:53:40.424Z,2.55
2023-05-14T18:56:07.461Z,2.85
2023-05-14T18:58:35.084Z,3.13
2023-05-14T19:01:01.633Z,2.63
2023-05-14T19:03:28.354Z,2.45
2023-05-14T19:05:54.851Z,1.90
2023-05-14T19:08:21.339Z,2.45
2023-05-14T19:10:47.731Z,2.10
2023-05-14T19:13:15.863Z,2.28
2023-05-14T19:15:43.100Z,2.10
2023-05-14T19:18:09.637Z,2.40
2023-05-14T19:20:36.176Z,2.35
2023-05-14T19:23:02.574Z,2.20
2023-05-14T19:25:29.320Z,2.10
2023-05-14T19:27:56.635Z,2.22
2023-05-14T19:30:23.379Z,2.55
2023-05-14T19:32:49.998Z,4.05
2023-05-14T19:35:16.508Z,2.97
2023-05-14T19:37:43.030Z,2.70
2023-05-14T19:40:09.670Z,2.20
2023-05-14T19:42:38.978Z,2.55
2023-05-14T19:45:05.987Z,2.35
2023-05-14T19:47:32.624Z,2.53
2023-05-14T19:49:59.137Z,2.28
2023-05-14T19:52:26.793Z,2.20
2023-05-14T19:54:53.218Z,2.40
2023-05-14T19:57:19.779Z,2.10
2023-05-14T19:59:46.361Z,2.08
2023-05-14T20:02:18.093Z,2.40
2023-05-14T20:04:45.979Z,2.85
2023-05-14T20:07:15.312Z,2.85
2023-05-14T20:09:42.096Z,4.05
2023-05-14T20:12:09.150Z,3.50
2023-05-14T20:14:35.979Z,3.20
2023-05-14T20:17:02.488Z,3.17
2023-05-14T20:19:29.018Z,2.97
2023-05-14T20:21:56.178Z,3.65
2023-05-14T20:24:22.800Z,2.50
2023-05-14T20:26:49.307Z,2.70
2023-05-14T20:29:15.671Z,3.38
2023-05-14T20:31:42.101Z,2.95
2023-05-14T20:34:08.492Z,3.45
2023-05-14T20:36:35.780Z,3.45
2023-05-14T20:39:02.333Z,3.47
2023-05-14T20:41:28.732Z,2.45
2023-05-14T20:43:55.093Z,2.17
2023-05-14T20:46:21.683Z,2.13
2023-05-14T20:48:48.615Z,2.60
2023-05-14T20:51:15.031Z,2.83
2023-05-14T20:53:41.697Z,3.40
2023-05-14T20:56:08.149Z,2.33
2023-05-14T20:58:35.188Z,2.10
2023-05-14T21:01:01.715Z,2.58
2023-05-14T21:03:28.259Z,2.35
2023-05-14T21:05:56.661Z,2.50
2023-05-14T21:08:23.194Z,2.28
2023-05-14T21:10:49.648Z,2.22
2023-05-14T21:13:16.147Z,1.85
2023-05-14T21:15:42.784Z,2.15
2023-05-14T21:18:09.197Z,2.40
2023-05-14T21:20:35.741Z,1.70
2023-05-14T21:23:02.132Z,2.10
2023-05-14T21:25:28.683Z,2.40
2023-05-14T21:27:55.313Z,1.92
2023-05-14T21:30:21.822Z,1.83
2023-05-14T21:32:48.336Z,2.28
2023-05-14T21:35:14.877Z,1.92
2023-05-14T21:37:41.564Z,1.92
2023-05-14T21:40:14.865Z,1.65
2023-05-14T21:42:41.317Z,1.88
2023-05-14T21:45:08.267Z,2.13
2023-05-14T21:47:34.979Z,2.70
2023-05-14T21:50:01.564Z,2.50
2023-05-14T21:52:27.966Z,1.95
2023-05-14T21:54:54.427Z,1.90
2023-05-14T21:57:20.966Z,2.10
2023-05-14T21:59:48.445Z,2.08
2023-05-14T22:02:15.128Z,1.98
2023-05-14T22:04:41.909Z,2.25
2023-05-14T22:07:08.366Z,1.90
2023-05-14T22:09:34.784Z,2.35
2023-05-14T22:12:01.163Z,2.13
2023-05-14T22:14:27.666Z,1.77
2023-05-14T22:16:54.276Z,2.35
2023-05-14T22:19:21.099Z,2.20
2023-05-14T22:21:47.602Z,2.05
2023-05-14T22:24:14.047Z,2.13
2023-05-14T22:26:40.641Z,2.05
2023-05-14T22:29:07.116Z,2.13
2023-05-14T22:31:33.523Z,1.90
2023-05-14T22:34:00.013Z,3.08
2023-05-14T22:36:26.500Z,7.90
2023-05-14T22:38:52.898Z,20.08
2023-05-14T22:41:19.982Z,5.40
2023-05-14T22:43:48.572Z,1.98
2023-05-14T22:46:15.885Z,2.20
2023-05-14T22:48:42.341Z,2.20
2023-05-14T22:51:08.802Z,2.33
2023-05-14T22:53:35.232Z,1.88
2023-05-14T22:56:02.114Z,2.00
2023-05-14T22:58:28.630Z,2.47
2023-05-14T23:00:55.006Z,2.78
2023-05-14T23:03:22.518Z,2.50
2023-05-14T23:05:49.180Z,3.10
2023-05-14T23:08:15.676Z,2.38
2023-05-14T23:10:42.039Z,2.42
2023-05-14T23:13:08.461Z,2.20
2023-05-14T23:15:35.019Z,2.55
2023-05-14T23:18:01.635Z,2.40
2023-05-14T23:20:28.116Z,2.22
2023-05-14T23:22:54.522Z,2.20
2023-05-14T23:25:20.956Z,3.40
2023-05-14T23:27:48.050Z,2.20
2023-05-14T23:30:14.510Z,2.20
2023-05-14T23:32:44.050Z,2.15
2023-05-14T23:35:10.559Z,2.10
2023-05-14T23:37:41.760Z,1.85
2023-05-14T23:40:09.442Z,1.58
2023-05-14T23:42:35.887Z,2.13
2023-05-14T23:45:02.289Z,2.03
2023-05-14T23:47:28.771Z,2.30
2023-05-14T23:49:55.323Z,2.03
2023-05-14T23:52:21.754Z,2.15
2023-05-14T23:54:48.098Z,2.40
2023-05-14T23:57:15.235Z,1.88
2023-05-14T23:59:41.701Z,2.40
